Time;durP1;ratioP1;P1;durP2;ratioP2;P2;SDS_P1;SDS_P2;PMS_P1;PMS_P2;Temp;Humidity;BMP_temperature;BMP_pressure;BME280_temperature;BME280_humidity;BME280_pressure;Samples;Min_cycle;Max_cycle;Signal;HPM_P1;HPM_P2
2024/01/17 00:00:49;;;;;;;29.25;21.20;;;5.70;94.70;;;;;;6156864;23;20025;-76
2024/01/17 00:03:15;;;;;;;26.80;20.35;;;5.70;94.30;;;;;;6183153;23;19997;-76
2024/01/17 00:05:40;;;;;;;29.70;21.88;;;5.70;99.00;;;;;;6183670;23;19997;-76
2024/01/17 00:08:06;;;;;;;31.17;23.48;;;5.70;99.30;;;;;;6157394;23;20009;-76
2024/01/17 00:10:32;;;;;;;30.85;23.60;;;5.70;99.90;;;;;;6183413;23;20425;-76
2024/01/17 00:12:57;;;;;;;29.17;24.10;;;5.70;97.80;;;;;;6183761;23;20315;-76
2024/01/17 00:15:23;;;;;;;26.67;23.52;;;5.70;95.80;;;;;;6156973;23;20009;-76
2024/01/17 00:17:49;;;;;;;32.03;24.38;;;5.60;94.60;;;;;;6183654;23;20488;-76
2024/01/17 00:20:15;;;;;;;36.15;23.98;;;5.60;93.00;;;;;;6157138;23;20051;-76
2024/01/17 00:22:41;;;;;;;31.15;24.90;;;5.60;94.80;;;;;;6157361;23;20485;-76
2024/01/17 00:25:08;;;;;;;32.97;24.83;;;5.60;97.00;;;;;;6157244;23;20868;-76
2024/01/17 00:27:36;;;;;;;31.08;24.77;;;5.60;99.90;;;;;;6157101;23;20404;-76
2024/01/17 00:30:02;;;;;;;32.60;24.60;;;5.60;99.90;;;;;;6157059;23;20039;-76
2024/01/17 00:32:28;;;;;;;32.88;24.30;;;5.60;97.70;;;;;;6157166;23;20440;-77
2024/01/17 00:34:54;;;;;;;28.17;21.40;;;5.60;98.60;;;;;;6157044;23;20005;-76
2024/01/17 00:37:20;;;;;;;28.77;21.52;;;5.60;98.60;;;;;;6183523;23;20008;-76
2024/01/17 00:39:46;;;;;;;26.67;20.90;;;5.60;99.80;;;;;;6183638;23;20001;-76
2024/01/17 00:42:12;;;;;;;32.53;23.25;;;5.60;99.90;;;;;;6183248;23;20128;-76
2024/01/17 00:44:40;;;;;;;28.00;23.00;;;5.60;99.90;;;;;;6157027;23;20088;-76
2024/01/17 00:47:06;;;;;;;26.67;21.42;;;5.60;99.90;;;;;;6183245;23;20429;-76
2024/01/17 00:49:32;;;;;;;21.63;18.27;;;5.60;99.90;;;;;;6157224;23;20005;-76
2024/01/17 00:51:58;;;;;;;23.77;18.35;;;5.60;99.90;;;;;;6183561;23;20036;-76
2024/01/17 00:54:23;;;;;;;23.83;18.58;;;5.60;99.90;;;;;;6183654;23;20025;-76
2024/01/17 00:56:49;;;;;;;25.83;18.50;;;5.60;99.90;;;;;;6183057;23;20076;-76
2024/01/17 00:59:15;;;;;;;24.08;19.08;;;5.60;99.90;;;;;;6182807;23;20008;-76
2024/01/17 01:01:41;;;;;;;24.70;19.13;;;5.60;99.90;;;;;;6156789;23;20393;-76
2024/01/17 01:04:09;;;;;;;22.38;17.42;;;5.60;99.90;;;;;;6183196;23;20004;-76
2024/01/17 01:06:35;;;;;;;22.20;18.90;;;5.60;99.90;;;;;;6156897;23;20001;-76
2024/01/17 01:09:01;;;;;;;21.30;17.23;;;5.60;99.90;;;;;;6156936;23;20075;-76
2024/01/17 01:11:30;;;;;;;23.02;19.65;;;5.60;99.90;;;;;;6183438;23;20039;-76
2024/01/17 01:13:56;;;;;;;24.30;19.88;;;5.60;99.90;;;;;;6182838;23;20005;-76
2024/01/17 01:16:22;;;;;;;23.23;19.63;;;5.60;99.90;;;;;;6183396;23;20448;-76
2024/01/17 01:18:47;;;;;;;25.15;19.10;;;5.60;99.90;;;;;;6183272;23;20001;-76
2024/01/17 01:21:14;;;;;;;24.48;19.58;;;5.60;99.90;;;;;;6157258;23;20009;-76
2024/01/17 01:23:40;;;;;;;26.17;19.92;;;5.60;99.90;;;;;;6185137;23;19997;-76
2024/01/17 01:26:06;;;;;;;25.67;19.35;;;5.60;99.90;;;;;;6158977;23;20060;-76
2024/01/17 01:28:32;;;;;;;24.10;18.77;;;5.50;99.90;;;;;;6185258;23;20001;-76
2024/01/17 01:30:57;;;;;;;26.88;20.30;;;5.50;99.90;;;;;;6158449;23;20071;-76
2024/01/17 01:33:24;;;;;;;31.50;23.00;;;5.50;99.90;;;;;;6185351;23;20001;-76
2024/01/17 01:35:49;;;;;;;28.42;23.00;;;5.50;99.90;;;;;;6158664;23;20222;-76
2024/01/17 01:38:15;;;;;;;29.77;24.38;;;5.50;99.90;;;;;;6158701;23;20341;-76
2024/01/17 01:40:42;;;;;;;33.97;24.55;;;5.50;99.90;;;;;;6158545;23;20080;-76
2024/01/17 01:43:21;;;;;;;29.15;23.27;;;5.50;99.90;;;;;;6185068;23;20076;-76
2024/01/17 01:46:03;;;;;;;30.02;23.33;;;5.50;99.90;;;;;;6184901;23;20389;-76
2024/01/17 01:48:30;;;;;;;23.77;20.35;;;5.50;99.90;;;;;;6185198;23;20500;-76
2024/01/17 01:50:56;;;;;;;28.80;22.02;;;5.50;99.90;;;;;;6158653;23;20441;-76
2024/01/17 01:53:22;;;;;;;29.50;24.13;;;5.50;99.90;;;;;;6184934;23;20001;-76
2024/01/17 01:55:47;;;;;;;36.78;25.63;;;5.50;99.90;;;;;;6184974;23;20495;-76
2024/01/17 01:58:15;;;;;;;38.22;26.83;;;5.50;99.90;;;;;;6158323;23;20465;-76
2024/01/17 02:00:41;;;;;;;34.22;26.52;;;5.50;99.90;;;;;;6184850;23;20008;-76
2024/01/17 02:03:07;;;;;;;33.97;26.85;;;5.50;99.90;;;;;;6184950;23;20008;-76
2024/01/17 02:05:33;;;;;;;41.67;28.42;;;5.50;99.90;;;;;;6184921;23;20005;-76
2024/01/17 02:08:00;;;;;;;68.00;35.55;;;5.50;99.90;;;;;;6158314;23;20009;-76
2024/01/17 02:10:26;;;;;;;65.22;35.63;;;5.50;99.90;;;;;;6185034;23;20008;-76
2024/01/17 02:12:52;;;;;;;60.40;34.13;;;5.50;99.90;;;;;;6184728;23;20311;-76
2024/01/17 02:15:18;;;;;;;43.92;29.15;;;5.50;99.90;;;;;;6184698;23;20010;-76
2024/01/17 02:17:43;;;;;;;44.90;28.70;;;5.60;99.90;;;;;;6184603;23;20005;-76
2024/01/17 02:20:09;;;;;;;45.78;31.25;;;5.50;99.90;;;;;;6184893;23;20007;-76
2024/01/17 02:22:35;;;;;;;36.45;27.90;;;5.50;99.90;;;;;;6184677;23;20429;-76
2024/01/17 02:25:07;;;;;;;35.22;26.70;;;5.50;99.90;;;;;;6158098;23;20063;-76
2024/01/17 02:27:33;;;;;;;36.20;27.35;;;5.50;99.90;;;;;;6184674;23;20445;-76
2024/01/17 02:29:59;;;;;;;36.92;28.63;;;5.50;99.90;;;;;;6184700;23;20001;-76
2024/01/17 02:32:25;;;;;;;42.55;29.98;;;5.50;99.90;;;;;;6184666;23;20433;-76
2024/01/17 02:34:51;;;;;;;43.65;28.92;;;5.50;99.90;;;;;;6184628;23;20036;-76
2024/01/17 02:37:17;;;;;;;42.92;30.27;;;5.50;99.90;;;;;;6184541;23;20001;-76
2024/01/17 02:39:43;;;;;;;42.00;29.60;;;5.50;99.90;;;;;;6184455;23;20495;-76
2024/01/17 02:42:09;;;;;;;44.10;29.83;;;5.50;99.90;;;;;;6158197;23;20001;-76
2024/01/17 02:44:34;;;;;;;41.35;30.02;;;5.50;99.90;;;;;;6184142;23;20005;-76
2024/01/17 02:47:00;;;;;;;43.50;29.90;;;5.50;99.90;;;;;;6184623;23;20024;-76
2024/01/17 02:49:26;;;;;;;33.80;26.27;;;5.50;99.90;;;;;;6184357;23;20005;-76
2024/01/17 02:51:51;;;;;;;34.50;25.40;;;5.40;99.90;;;;;;6184309;23;20051;-76
2024/01/17 02:54:17;;;;;;;34.60;26.67;;;5.40;99.90;;;;;;6184543;23;20005;-76
2024/01/17 02:56:43;;;;;;;38.47;27.67;;;5.40;99.90;;;;;;6157526;23;20028;-76
2024/01/17 02:59:08;;;;;;;43.28;29.50;;;5.50;99.90;;;;;;6184219;23;20035;-76
2024/01/17 03:01:34;;;;;;;41.40;30.17;;;5.50;99.90;;;;;;6184022;23;20017;-76
2024/01/17 03:04:00;;;;;;;41.42;29.20;;;5.50;99.90;;;;;;6184521;23;20028;-76
2024/01/17 03:06:26;;;;;;;45.78;29.92;;;5.50;99.90;;;;;;6183968;23;20417;-76
2024/01/17 03:08:52;;;;;;;41.08;28.23;;;5.50;99.90;;;;;;6184320;23;20005;-76
2024/01/17 03:11:18;;;;;;;34.70;26.65;;;5.50;99.90;;;;;;6184399;23;20032;-76
2024/01/17 03:13:43;;;;;;;33.75;25.58;;;5.50;99.90;;;;;;6184073;23;20008;-76
2024/01/17 03:16:09;;;;;;;33.63;25.23;;;5.40;99.90;;;;;;6157580;23;20059;-76
2024/01/17 03:18:37;;;;;;;31.02;24.58;;;5.40;99.90;;;;;;6157588;23;20005;-76
2024/01/17 03:21:05;;;;;;;31.95;24.70;;;5.50;99.90;;;;;;6184243;23;20361;-76
2024/01/17 03:23:31;;;;;;;32.15;24.40;;;5.50;99.90;;;;;;6184026;23;20142;-76
2024/01/17 03:25:57;;;;;;;30.98;24.35;;;5.50;99.90;;;;;;6184069;23;20080;-76
2024/01/17 03:28:22;;;;;;;31.77;24.40;;;5.50;99.90;;;;;;6184090;23;20032;-76
2024/01/17 03:30:48;;;;;;;32.70;22.58;;;5.50;99.90;;;;;;6184160;23;20379;-76
2024/01/17 03:33:14;;;;;;;28.38;21.95;;;5.50;99.90;;;;;;6184096;23;20009;-76
2024/01/17 03:35:42;;;;;;;30.38;21.05;;;5.40;99.90;;;;;;6183969;23;20001;-76
2024/01/17 03:38:07;;;;;;;27.80;21.80;;;5.40;99.90;;;;;;6183742;23;20005;-76
2024/01/17 03:40:33;;;;;;;32.33;21.60;;;5.40;99.90;;;;;;6157664;23;20107;-76
2024/01/17 03:42:59;;;;;;;28.55;20.90;;;5.50;99.90;;;;;;6184008;23;19997;-76
2024/01/17 03:45:25;;;;;;;26.60;20.20;;;5.50;99.90;;;;;;6156798;23;20005;-76
2024/01/17 03:47:51;;;;;;;24.63;20.42;;;5.50;99.90;;;;;;6184080;23;20001;-76
2024/01/17 03:50:16;;;;;;;26.45;20.08;;;5.50;99.90;;;;;;6183750;23;20059;-76
2024/01/17 03:52:42;;;;;;;26.40;21.13;;;5.50;99.90;;;;;;6183903;23;20027;-76
2024/01/17 03:55:08;;;;;;;27.15;19.98;;;5.50;99.90;;;;;;6183744;23;20008;-76
2024/01/17 03:57:34;;;;;;;26.00;20.02;;;5.50;99.90;;;;;;6183785;23;20011;-76
2024/01/17 04:00:01;;;;;;;29.50;19.83;;;5.50;99.90;;;;;;6157304;23;20029;-76
2024/01/17 04:02:26;;;;;;;26.55;20.50;;;5.50;99.90;;;;;;6156985;23;20044;-76
2024/01/17 04:04:52;;;;;;;24.77;20.05;;;5.60;99.90;;;;;;6183687;23;20402;-76
2024/01/17 04:07:20;;;;;;;29.83;22.23;;;5.60;99.90;;;;;;6183610;23;20005;-76
2024/01/17 04:09:46;;;;;;;26.92;21.90;;;5.60;99.90;;;;;;6183861;23;20051;-76
2024/01/17 04:12:12;;;;;;;30.58;21.83;;;5.60;99.90;;;;;;6183668;23;20080;-76
2024/01/17 04:14:38;;;;;;;30.42;21.60;;;5.60;99.90;;;;;;6183544;23;19997;-76
2024/01/17 04:17:04;;;;;;;29.65;21.00;;;5.60;99.90;;;;;;6157091;23;20032;-76
2024/01/17 04:19:30;;;;;;;28.58;21.70;;;5.60;99.90;;;;;;6183547;23;20008;-76
2024/01/17 04:21:56;;;;;;;30.73;23.48;;;5.60;99.90;;;;;;6183753;23;20005;-76
2024/01/17 04:24:24;;;;;;;27.45;22.13;;;5.60;99.90;;;;;;6157404;23;20005;-76
2024/01/17 04:26:50;;;;;;;27.30;23.50;;;5.60;99.90;;;;;;6157093;23;20028;-76
2024/01/17 04:29:15;;;;;;;35.47;25.08;;;5.60;99.90;;;;;;6157213;23;20429;-76
2024/01/17 04:31:41;;;;;;;34.97;24.40;;;5.50;99.90;;;;;;6183768;23;20001;-76
2024/01/17 04:34:07;;;;;;;29.52;24.63;;;5.40;99.90;;;;;;6183318;23;20009;-76
2024/01/17 04:36:33;;;;;;;34.88;26.33;;;5.40;99.90;;;;;;6157198;23;20040;-76
2024/01/17 04:39:00;;;;;;;38.83;26.30;;;5.40;99.90;;;;;;6183306;23;20336;-76
2024/01/17 04:41:26;;;;;;;36.08;27.52;;;5.30;99.90;;;;;;6183589;23;20453;-76
2024/01/17 04:43:52;;;;;;;40.75;30.10;;;5.30;99.90;;;;;;6156972;23;20001;-76
2024/01/17 04:46:17;;;;;;;38.40;29.17;;;5.30;99.90;;;;;;6156840;23;20028;-76
2024/01/17 04:48:45;;;;;;;38.80;30.33;;;5.30;99.90;;;;;;6156989;23;20013;-76
2024/01/17 04:51:11;;;;;;;39.33;28.73;;;5.30;99.90;;;;;;6156826;23;20009;-76
2024/01/17 04:53:38;;;;;;;42.25;29.02;;;5.40;99.90;;;;;;6183558;23;20419;-76
2024/01/17 04:56:05;;;;;;;44.03;30.45;;;5.40;99.90;;;;;;6183408;23;20192;-76
2024/01/17 04:58:32;;;;;;;38.05;28.92;;;5.40;99.90;;;;;;6158814;23;20036;-76
2024/01/17 05:00:59;;;;;;;36.88;28.42;;;5.40;99.90;;;;;;6185240;23;20080;-76
2024/01/17 05:03:25;;;;;;;40.42;29.42;;;5.40;99.90;;;;;;6185460;23;19997;-76
2024/01/17 05:05:51;;;;;;;39.95;29.05;;;5.30;97.70;;;;;;6158773;23;20059;-76
2024/01/17 05:08:17;;;;;;;38.05;28.15;;;5.30;95.10;;;;;;6158966;23;20005;-76
2024/01/17 05:10:46;;;;;;;40.28;28.27;;;5.30;96.40;;;;;;6185314;23;19993;-76
2024/01/17 05:13:13;;;;;;;40.63;28.40;;;5.30;91.50;;;;;;6158780;23;20013;-74
2024/01/17 05:15:39;;;;;;;40.90;27.15;;;5.30;82.10;;;;;;6185066;23;20338;-74
2024/01/17 05:18:06;;;;;;;36.72;27.55;;;5.30;75.30;;;;;;6185184;23;20005;-74
2024/01/17 05:20:33;;;;;;;42.05;27.02;;;5.30;69.20;;;;;;6158760;23;20080;-76
2024/01/17 05:22:59;;;;;;;34.05;26.10;;;5.30;71.40;;;;;;6159021;23;20016;-74
2024/01/17 05:25:26;;;;;;;38.53;25.58;;;5.40;79.40;;;;;;6185256;23;20329;-74
2024/01/17 05:27:52;;;;;;;33.38;24.75;;;5.40;78.20;;;;;;6185427;23;20001;-76
2024/01/17 05:30:25;;;;;;;35.50;27.25;;;5.40;89.80;;;;;;6185040;23;20377;-76
2024/01/17 05:32:51;;;;;;;37.33;27.95;;;5.40;93.00;;;;;;6158768;23;20364;-76
2024/01/17 05:35:18;;;;;;;44.63;29.58;;;5.40;95.80;;;;;;6185042;23;20436;-76
2024/01/17 05:37:44;;;;;;;37.85;28.65;;;5.40;98.40;;;;;;6158522;23;20442;-76
2024/01/17 05:40:12;;;;;;;43.38;29.52;;;5.40;99.90;;;;;;6158837;23;20367;-76
2024/01/17 05:42:39;;;;;;;37.90;28.33;;;5.40;99.90;;;;;;6158358;23;20032;-76
2024/01/17 05:45:07;;;;;;;37.38;27.52;;;5.40;99.90;;;;;;6158511;23;20020;-76
2024/01/17 05:47:36;;;;;;;38.80;28.67;;;5.40;99.90;;;;;;6158352;23;20007;-76
2024/01/17 05:50:09;;;;;;;38.25;27.70;;;5.30;99.90;;;;;;6185143;23;20013;-76
2024/01/17 05:52:42;;;;;;;39.97;28.92;;;5.40;99.90;;;;;;6158621;23;20005;-76
2024/01/17 05:55:12;;;;;;;44.42;30.27;;;5.30;99.90;;;;;;6184859;23;20051;-76
2024/01/17 05:57:38;;;;;;;50.22;35.63;;;5.30;99.90;;;;;;6158418;23;20334;-76
2024/01/17 06:00:08;;;;;;;54.20;38.42;;;5.30;99.90;;;;;;6184873;23;20004;-76
2024/01/17 06:02:34;;;;;;;47.65;33.40;;;5.30;99.90;;;;;;6156957;23;20426;-76
2024/01/17 06:05:00;;;;;;;40.58;30.10;;;5.20;99.90;;;;;;6183856;23;20001;-76
2024/01/17 06:07:26;;;;;;;39.42;28.75;;;5.30;99.90;;;;;;6183482;23;20032;-76
2024/01/17 06:09:52;;;;;;;38.33;29.23;;;5.20;99.90;;;;;;6157721;23;20032;-76
2024/01/17 06:12:17;;;;;;;44.60;31.55;;;5.20;99.90;;;;;;6157244;23;20064;-76
2024/01/17 06:14:43;;;;;;;41.13;30.23;;;5.20;99.90;;;;;;6156664;23;20084;-76
2024/01/17 06:17:09;;;;;;;40.25;29.42;;;5.30;99.90;;;;;;6183184;23;19998;-76
2024/01/17 06:19:34;;;;;;;41.08;28.50;;;5.20;99.90;;;;;;6156505;23;20445;-76
2024/01/17 06:22:01;;;;;;;38.72;28.50;;;5.20;99.90;;;;;;6156596;23;20269;-76
2024/01/17 06:24:27;;;;;;;39.72;28.02;;;5.20;99.90;;;;;;6156629;23;20129;-76
2024/01/17 06:26:53;;;;;;;50.20;35.10;;;5.20;99.90;;;;;;6156851;23;20026;-76
2024/01/17 06:29:21;;;;;;;47.05;32.00;;;5.20;99.90;;;;;;6157214;23;20418;-76
2024/01/17 06:31:48;;;;;;;38.08;29.73;;;5.20;99.90;;;;;;6184710;23;20008;-76
2024/01/17 06:34:13;;;;;;;40.55;30.67;;;5.20;99.90;;;;;;6157544;23;20009;-76
2024/01/17 06:36:39;;;;;;;39.85;32.25;;;5.20;99.90;;;;;;6184877;23;20007;-76
2024/01/17 06:39:05;;;;;;;40.53;31.25;;;5.20;99.90;;;;;;6156727;23;20016;-76
2024/01/17 06:41:31;;;;;;;39.78;31.52;;;5.20;99.90;;;;;;6183522;23;20329;-76
2024/01/17 06:43:57;;;;;;;49.28;33.22;;;5.20;99.90;;;;;;6183316;23;19997;-76
2024/01/17 06:46:22;;;;;;;37.38;31.60;;;5.20;99.90;;;;;;6156859;23;20001;-76
2024/01/17 06:48:48;;;;;;;41.90;31.52;;;5.20;99.90;;;;;;6157170;23;20012;-76
2024/01/17 06:51:14;;;;;;;45.10;31.52;;;5.20;99.90;;;;;;6156531;23;20016;-76
2024/01/17 06:53:40;;;;;;;41.45;31.25;;;5.20;99.90;;;;;;6183005;23;20132;-76
2024/01/17 06:56:06;;;;;;;39.88;32.38;;;5.20;99.90;;;;;;6182943;23;20337;-76
2024/01/17 06:58:31;;;;;;;45.20;32.78;;;5.20;99.90;;;;;;6182682;23;20005;-76
2024/01/17 07:00:57;;;;;;;46.00;34.80;;;5.20;99.90;;;;;;6106281;23;1178743;-76
2024/01/17 07:03:23;;;;;;;45.88;34.03;;;5.20;99.90;;;;;;6184327;23;20084;-76
2024/01/17 07:05:48;;;;;;;47.08;35.30;;;5.10;99.90;;;;;;6184052;23;20056;-76
2024/01/17 07:08:14;;;;;;;46.85;36.20;;;5.10;99.90;;;;;;6182827;23;20009;-76
2024/01/17 07:10:40;;;;;;;43.28;34.38;;;5.10;99.90;;;;;;6184107;23;20028;-76
2024/01/17 07:13:07;;;;;;;48.42;37.22;;;5.10;99.90;;;;;;6157435;23;20012;-76
2024/01/17 07:15:32;;;;;;;51.13;38.63;;;5.10;99.90;;;;;;6157368;23;20059;-76
2024/01/17 07:17:58;;;;;;;49.13;37.80;;;5.10;99.90;;;;;;6183547;23;20079;-76
2024/01/17 07:20:24;;;;;;;52.55;40.47;;;5.10;99.90;;;;;;6183925;23;20032;-76
2024/01/17 07:22:50;;;;;;;53.42;39.97;;;5.10;99.90;;;;;;6184286;23;20001;-76
2024/01/17 07:25:16;;;;;;;58.25;40.63;;;5.10;99.90;;;;;;6157527;23;20381;-76
2024/01/17 07:27:46;;;;;;;53.53;40.65;;;5.20;99.90;;;;;;6184278;23;20001;-76
2024/01/17 07:30:12;;;;;;;53.22;41.83;;;5.20;99.90;;;;;;6183929;23;20051;-76
2024/01/17 07:32:39;;;;;;;49.38;38.47;;;5.20;99.90;;;;;;6157786;23;20009;-76
2024/01/17 07:35:08;;;;;;;44.75;36.65;;;5.20;99.90;;;;;;6184071;23;20570;-76
2024/01/17 07:40:18;;;;;;;51.85;38.05;;;5.20;99.90;;;;;;6184124;23;20039;-76
2024/01/17 07:42:44;;;;;;;49.20;37.10;;;5.20;99.90;;;;;;6184095;23;20101;-76
2024/01/17 07:45:12;;;;;;;47.00;37.92;;;5.30;99.90;;;;;;6183860;23;20005;-76
2024/01/17 07:47:38;;;;;;;49.97;38.53;;;5.30;99.90;;;;;;6183945;23;20000;-76
2024/01/17 07:50:04;;;;;;;53.80;40.53;;;5.30;99.90;;;;;;6157477;23;20009;-76
2024/01/17 07:52:30;;;;;;;52.92;41.83;;;5.30;99.90;;;;;;6183933;23;20012;-76
2024/01/17 07:54:55;;;;;;;55.58;42.60;;;5.20;99.90;;;;;;6157412;23;20433;-76
2024/01/17 07:57:21;;;;;;;50.63;38.78;;;5.30;99.90;;;;;;6184019;23;20123;-76
2024/01/17 07:59:47;;;;;;;59.67;43.78;;;5.30;99.90;;;;;;6183494;23;20405;-76
2024/01/17 08:02:12;;;;;;;55.00;41.58;;;5.30;99.90;;;;;;6183687;23;20041;-76
2024/01/17 08:04:41;;;;;;;53.75;43.15;;;5.30;99.90;;;;;;6183680;23;19997;-76
2024/01/17 08:18:15;;;;;;;61.05;45.70;;;5.30;99.90;;;;;;5127005;27;20386;-74
2024/01/17 08:20:40;;;;;;;54.65;45.20;;;5.70;99.90;;;;;;5140487;27;20478;-74
2024/01/17 08:23:06;;;;;;;56.47;44.65;;;5.60;99.90;;;;;;5134638;27;20551;-75
2024/01/17 08:25:35;;;;;;;63.00;45.75;;;5.60;99.90;;;;;;5137948;27;20031;-75
2024/01/17 08:28:01;;;;;;;58.53;44.92;;;5.50;99.90;;;;;;5131193;27;20542;-75
2024/01/17 08:30:27;;;;;;;59.88;47.08;;;5.50;99.90;;;;;;5141866;27;20031;-75
2024/01/17 08:32:53;;;;;;;63.25;45.45;;;5.50;99.90;;;;;;5132165;27;20042;-75
2024/01/17 08:35:22;;;;;;;65.50;47.40;;;5.40;99.90;;;;;;5138632;27;20030;-75
2024/01/17 08:37:48;;;;;;;66.28;47.85;;;5.50;99.90;;;;;;5132540;27;20386;-75
2024/01/17 08:40:17;;;;;;;61.38;48.13;;;5.50;99.90;;;;;;5137632;27;20031;-75
2024/01/17 08:42:46;;;;;;;63.60;47.70;;;5.50;99.90;;;;;;5133623;27;20072;-75
2024/01/17 08:45:11;;;;;;;59.65;45.72;;;5.50;99.90;;;;;;5136972;27;20031;-75
2024/01/17 08:47:38;;;;;;;64.45;47.47;;;5.50;99.90;;;;;;5132949;27;20551;-75
2024/01/17 08:50:04;;;;;;;64.72;48.55;;;5.50;99.90;;;;;;5135871;27;20022;-75
2024/01/17 08:52:30;;;;;;;58.00;44.53;;;5.50;99.90;;;;;;5130365;27;20016;-75
2024/01/17 08:54:56;;;;;;;64.22;48.42;;;5.50;99.90;;;;;;5136946;27;20023;-75
2024/01/17 08:57:21;;;;;;;59.33;44.95;;;5.50;99.90;;;;;;5134961;27;20026;-76
2024/01/17 08:59:47;;;;;;;55.78;43.15;;;5.50;99.90;;;;;;5133162;27;20119;-75
2024/01/17 09:02:13;;;;;;;62.90;46.88;;;5.50;99.90;;;;;;5136358;27;20424;-75
2024/01/17 09:04:39;;;;;;;66.30;46.90;;;5.50;99.90;;;;;;5134185;27;20035;-75
2024/01/17 09:07:05;;;;;;;61.85;46.03;;;5.60;99.90;;;;;;5134663;27;20023;-75
2024/01/17 09:09:30;;;;;;;65.20;49.83;;;5.50;99.90;;;;;;5136355;27;20030;-75
2024/01/17 09:11:56;;;;;;;63.28;48.85;;;5.50;99.90;;;;;;5136270;27;20015;-76
2024/01/17 09:14:24;;;;;;;68.90;50.38;;;5.50;99.90;;;;;;5133049;27;20023;-75
2024/01/17 09:16:53;;;;;;;87.47;57.45;;;5.50;99.90;;;;;;5169505;27;20506;-76
2024/01/17 09:19:22;;;;;;;79.13;56.05;;;5.50;99.90;;;;;;5117193;27;20054;-75
2024/01/17 09:21:51;;;;;;;80.70;57.65;;;5.50;99.90;;;;;;5121949;27;20028;-75
2024/01/17 09:24:16;;;;;;;92.50;60.38;;;5.50;99.90;;;;;;5117449;27;20032;-76
2024/01/17 09:26:42;;;;;;;84.22;57.47;;;5.40;99.90;;;;;;5124476;27;20390;-76
2024/01/17 09:29:08;;;;;;;85.47;58.85;;;5.40;99.90;;;;;;5118472;27;20528;-76
2024/01/17 09:31:34;;;;;;;89.03;59.67;;;5.40;99.90;;;;;;5123637;27;20051;-76
2024/01/17 09:33:59;;;;;;;96.55;62.03;;;5.40;99.90;;;;;;5129304;27;20019;-76
2024/01/17 09:36:25;;;;;;;89.05;61.22;;;5.30;99.90;;;;;;5122184;27;20490;-76
2024/01/17 09:38:52;;;;;;;98.22;65.45;;;5.40;99.90;;;;;;5117948;27;20635;-76
2024/01/17 09:41:18;;;;;;;104.40;65.93;;;5.30;99.90;;;;;;5123943;27;20505;-76
2024/01/17 09:43:44;;;;;;;79.88;56.17;;;5.40;99.90;;;;;;5115542;27;20027;-76
2024/01/17 09:46:12;;;;;;;106.72;67.18;;;5.40;99.90;;;;;;5122528;27;20520;-76
2024/01/17 09:48:40;;;;;;;87.25;61.78;;;5.40;99.90;;;;;;5119919;27;20023;-76
2024/01/17 09:51:06;;;;;;;89.03;62.50;;;5.40;99.90;;;;;;5124166;27;20482;-76
2024/01/17 09:53:33;;;;;;;110.53;69.00;;;5.40;99.90;;;;;;5116727;27;20031;-76
2024/01/17 09:56:01;;;;;;;89.07;62.67;;;5.40;99.90;;;;;;5125860;27;20027;-76
2024/01/17 09:58:35;;;;;;;91.03;63.67;;;5.40;99.90;;;;;;5117812;27;20054;-76
2024/01/17 10:01:04;;;;;;;92.07;62.65;;;5.40;99.90;;;;;;5124198;27;20033;-76
2024/01/17 10:03:30;;;;;;;124.30;76.30;;;5.40;99.90;;;;;;5117216;27;20031;-76
2024/01/17 10:05:56;;;;;;;83.90;62.67;;;5.30;99.90;;;;;;5128097;27;20106;-76
2024/01/17 10:08:22;;;;;;;92.43;64.72;;;5.30;99.90;;;;;;5122515;27;20039;-76
2024/01/17 10:10:48;;;;;;;110.60;71.85;;;5.30;99.90;;;;;;5121589;27;20026;-77
2024/01/17 10:13:14;;;;;;;88.65;60.70;;;5.30;99.90;;;;;;5118888;27;20038;-76
2024/01/17 10:15:45;;;;;;;86.55;61.15;;;5.30;99.90;;;;;;5119900;27;20061;-76
2024/01/17 10:18:11;;;;;;;94.63;63.83;;;5.40;99.90;;;;;;5120389;27;20043;-76
2024/01/17 10:20:37;;;;;;;76.20;57.88;;;5.30;99.90;;;;;;5115704;27;20393;-76
2024/01/17 10:23:05;;;;;;;76.97;56.72;;;5.40;99.90;;;;;;5116974;27;20023;-77
2024/01/17 10:25:57;;;;;;;74.65;54.45;;;5.40;99.90;;;;;;5118384;27;20478;-77
2024/01/17 10:28:23;;;;;;;78.82;58.17;;;5.40;99.90;;;;;;5129622;27;20491;-77
2024/01/17 10:30:50;;;;;;;82.25;57.63;;;5.40;99.90;;;;;;5127069;27;20494;-77
2024/01/17 10:33:15;;;;;;;82.53;60.05;;;5.40;99.90;;;;;;5125312;27;20026;-77
2024/01/17 10:35:41;;;;;;;75.65;55.75;;;5.40;99.90;;;;;;5122174;27;20483;-77
2024/01/17 10:38:08;;;;;;;78.35;56.92;;;5.40;99.90;;;;;;5118406;27;20489;-77
2024/01/17 10:40:34;;;;;;;81.93;60.00;;;5.40;99.90;;;;;;5121281;27;20038;-77
2024/01/17 10:43:10;;;;;;;85.50;64.80;;;5.40;99.90;;;;;;5112167;27;20612;-77
2024/01/17 10:45:44;;;;;;;88.18;62.53;;;5.40;99.90;;;;;;5123882;27;20619;-77
2024/01/17 10:48:10;;;;;;;79.82;58.05;;;5.40;99.90;;;;;;5128339;27;20042;-77
2024/01/17 10:50:36;;;;;;;76.28;55.13;;;5.40;99.90;;;;;;5127015;27;20486;-77
2024/01/17 10:53:06;;;;;;;85.80;61.67;;;5.40;99.90;;;;;;5117418;27;20026;-77
2024/01/17 10:55:37;;;;;;;81.00;61.72;;;5.40;99.90;;;;;;5125817;27;20024;-77
2024/01/17 10:58:14;;;;;;;68.60;51.80;;;5.40;99.90;;;;;;5111921;27;20027;-78
2024/01/17 11:00:45;;;;;;;60.38;45.40;;;5.40;99.90;;;;;;5115709;27;20023;-77
2024/01/17 11:03:20;;;;;;;54.13;42.90;;;5.40;99.90;;;;;;5116480;27;20023;-77
2024/01/17 11:05:50;;;;;;;58.90;43.30;;;5.40;99.90;;;;;;5116471;27;20031;-77
2024/01/17 11:08:18;;;;;;;49.63;35.45;;;5.40;99.90;;;;;;5112810;28;20023;-77
2024/01/17 11:10:44;;;;;;;40.13;30.92;;;5.40;99.90;;;;;;5121224;27;20072;-77
2024/01/17 11:13:15;;;;;;;35.97;29.05;;;5.40;99.90;;;;;;5117908;27;20037;-77
2024/01/17 11:15:43;;;;;;;32.15;26.40;;;5.40;99.90;;;;;;5120363;27;20093;-77
2024/01/17 11:18:12;;;;;;;25.30;21.70;;;5.40;99.90;;;;;;5119865;27;20043;-76
2024/01/17 11:20:40;;;;;;;21.90;18.90;;;5.40;99.90;;;;;;5121312;27;20034;-76
2024/01/17 11:23:40;;;;;;;15.68;14.02;;;5.40;99.90;;;;;;5116968;27;20020;-76
2024/01/17 11:26:28;;;;;;;12.80;11.40;;;5.40;99.90;;;;;;5118364;27;20075;-76
2024/01/17 11:29:13;;;;;;;9.88;8.88;;;5.40;99.90;;;;;;5115084;27;20023;-76
2024/01/17 11:32:00;;;;;;;6.10;5.70;;;5.40;99.90;;;;;;5115742;27;20024;-76
2024/01/17 11:34:26;;;;;;;5.90;5.40;;;5.40;99.90;;;;;;5115044;27;20431;-76
2024/01/17 11:36:52;;;;;;;6.20;5.70;;;5.40;99.90;;;;;;5116057;27;20027;-76
2024/01/17 11:39:19;;;;;;;6.43;5.82;;;5.40;99.90;;;;;;5112319;28;20085;-76
2024/01/17 11:41:46;;;;;;;9.55;8.65;;;5.40;99.90;;;;;;5115972;27;20031;-76
2024/01/17 11:44:14;;;;;;;32.05;25.92;;;5.40;99.90;;;;;;5119656;27;20157;-77
2024/01/17 11:46:40;;;;;;;47.50;36.22;;;5.40;99.90;;;;;;5113401;27;20047;-76
2024/01/17 11:49:09;;;;;;;44.08;34.63;;;5.40;99.90;;;;;;5108667;28;20032;-77
2024/01/17 11:51:37;;;;;;;50.10;39.15;;;5.40;99.90;;;;;;5121327;27;20428;-77
2024/01/17 11:54:06;;;;;;;54.47;41.97;;;5.40;99.90;;;;;;5104633;28;20020;-76
2024/01/17 11:56:32;;;;;;;49.95;39.50;;;5.40;99.90;;;;;;5118503;27;20024;-77
2024/01/17 11:59:04;;;;;;;49.72;38.83;;;5.50;99.90;;;;;;5114214;27;20053;-76
2024/01/17 12:01:36;;;;;;;40.95;33.20;;;5.60;99.90;;;;;;5117922;27;20044;-77
2024/01/17 12:04:10;;;;;;;34.40;29.25;;;5.60;99.90;;;;;;5111767;28;20024;-76
2024/01/17 12:06:38;;;;;;;38.47;31.50;;;5.60;99.90;;;;;;5126307;27;20371;-76
2024/01/17 12:09:07;;;;;;;36.58;27.00;;;5.60;99.90;;;;;;5111666;28;20030;-76
2024/01/17 12:11:33;;;;;;;28.50;25.25;;;5.60;99.90;;;;;;5116481;28;20035;-76
2024/01/17 12:13:59;;;;;;;30.17;25.08;;;5.70;99.90;;;;;;5114516;28;20023;-76
2024/01/17 12:16:27;;;;;;;33.28;25.63;;;5.70;99.90;;;;;;5109997;28;20052;-76
2024/01/17 12:19:00;;;;;;;27.48;23.40;;;5.70;99.90;;;;;;5113989;28;20505;-77
2024/01/17 12:21:26;;;;;;;21.80;19.50;;;5.70;99.90;;;;;;5122358;28;20092;-77
2024/01/17 12:23:52;;;;;;;24.25;20.80;;;5.70;99.90;;;;;;5111956;28;20510;-73
2024/01/17 12:26:18;;;;;;;23.42;20.80;;;5.70;99.90;;;;;;5115649;28;20023;-77
2024/01/17 12:28:45;;;;;;;25.25;22.58;;;5.80;99.90;;;;;;5110870;27;20020;-77
2024/01/17 12:31:11;;;;;;;23.17;20.88;;;5.80;99.90;;;;;;5107843;28;20073;-76
2024/01/17 12:33:38;;;;;;;25.85;23.20;;;5.80;99.90;;;;;;5109241;28;20035;-77
2024/01/17 12:36:05;;;;;;;22.23;20.08;;;5.80;99.90;;;;;;5108490;28;20371;-77
2024/01/17 12:38:36;;;;;;;21.95;19.75;;;5.80;99.90;;;;;;5108642;28;20057;-77
2024/01/17 12:41:04;;;;;;;21.35;19.15;;;5.80;99.90;;;;;;5115342;28;20110;-77
2024/01/17 12:43:32;;;;;;;23.30;20.90;;;5.80;99.90;;;;;;5110888;27;20110;-77
2024/01/17 12:45:58;;;;;;;21.77;19.58;;;5.80;99.90;;;;;;5129265;27;20064;-77
2024/01/17 12:48:26;;;;;;;22.88;20.38;;;5.80;99.90;;;;;;5124328;28;20450;-77
2024/01/17 12:51:01;;;;;;;20.50;18.50;;;5.80;99.90;;;;;;5128603;27;20019;-77